Time;durP1;ratioP1;P1;durP2;ratioP2;P2;SDS_P1;SDS_P2;PMS_P1;PMS_P2;Temp;Humidity;BMP_temperature;BMP_pressure;BME280_temperature;BME280_humidity;BME280_pressure;Samples;Min_cycle;Max_cycle;Signal;HPM_P1;HPM_P2
2023/07/21 00:01:48;;;;;;;1.40;1.30;;;25.70;45.00;;;;;;4953107;28;20489;-47
2023/07/21 00:04:17;;;;;;;2.00;1.70;;;25.70;44.90;;;;;;4957788;28;20444;-47
2023/07/21 00:06:47;;;;;;;1.50;1.40;;;25.70;45.00;;;;;;4959125;28;20472;-45
2023/07/21 00:09:16;;;;;;;1.80;1.70;;;25.70;44.90;;;;;;4974456;28;20455;-46
2023/07/21 00:11:44;;;;;;;1.87;1.77;;;25.70;45.00;;;;;;4972757;28;20971;-47
2023/07/21 00:14:13;;;;;;;1.60;1.50;;;25.70;45.00;;;;;;4958675;28;20481;-47
2023/07/21 00:16:42;;;;;;;1.40;1.30;;;25.70;46.20;;;;;;4956435;28;20576;-47
2023/07/21 00:19:11;;;;;;;1.57;1.47;;;25.70;45.10;;;;;;4973686;28;21028;-48
2023/07/21 00:21:39;;;;;;;1.60;1.50;;;25.60;45.00;;;;;;4956921;28;20520;-47
2023/07/21 00:24:11;;;;;;;1.70;1.60;;;25.70;45.00;;;;;;4972761;28;20876;-46
2023/07/21 00:26:39;;;;;;;1.43;1.33;;;25.70;45.10;;;;;;4974159;28;20537;-47
2023/07/21 00:29:08;;;;;;;2.93;1.20;;;25.70;45.10;;;;;;4973597;28;20434;-46
2023/07/21 00:31:38;;;;;;;1.50;1.40;;;25.70;45.10;;;;;;4963195;28;20481;-47
2023/07/21 00:34:08;;;;;;;1.50;1.40;;;25.70;45.10;;;;;;4972245;28;20573;-48
2023/07/21 00:36:37;;;;;;;1.50;1.40;;;25.60;45.10;;;;;;4955055;28;20576;-48
2023/07/21 00:39:06;;;;;;;1.93;1.43;;;25.60;45.10;;;;;;4980017;28;20459;-46
2023/07/21 00:41:36;;;;;;;1.73;1.50;;;25.60;45.00;;;;;;4977917;28;20476;-45
2023/07/21 00:44:08;;;;;;;1.50;1.40;;;25.60;45.10;;;;;;4977109;28;20888;-47
2023/07/21 00:46:40;;;;;;;1.73;1.50;;;25.60;45.00;;;;;;4962139;28;20481;-46
2023/07/21 00:49:09;;;;;;;1.40;1.30;;;25.60;45.00;;;;;;4959751;28;20447;-46
2023/07/21 00:51:39;;;;;;;1.50;1.40;;;25.60;45.10;;;;;;4976110;28;20892;-48
2023/07/21 00:54:08;;;;;;;1.60;1.50;;;25.60;45.10;;;;;;4979411;28;20472;-47
2023/07/21 00:56:41;;;;;;;1.40;1.30;;;25.60;45.10;;;;;;4976983;28;20494;-46
2023/07/21 00:59:13;;;;;;;1.83;1.73;;;25.60;45.00;;;;;;4974109;28;20436;-47
2023/07/21 01:01:41;;;;;;;1.63;1.53;;;25.60;45.20;;;;;;4962014;28;20504;-47
2023/07/21 01:04:10;;;;;;;1.30;1.20;;;25.60;45.10;;;;;;4973836;28;20457;-47
2023/07/21 01:06:41;;;;;;;1.37;1.27;;;25.60;45.10;;;;;;4978301;28;20492;-47
2023/07/21 01:09:12;;;;;;;1.60;1.50;;;25.60;45.20;;;;;;4959107;28;20452;-48
2023/07/21 01:11:42;;;;;;;1.50;1.40;;;25.60;45.20;;;;;;4955953;28;20484;-46
2023/07/21 01:14:11;;;;;;;1.53;1.43;;;25.60;45.20;;;;;;4971379;28;20488;-46
2023/07/21 01:16:43;;;;;;;1.30;1.20;;;25.60;45.10;;;;;;4976529;28;20504;-47
2023/07/21 01:19:14;;;;;;;1.50;1.40;;;25.60;45.20;;;;;;4975094;28;20462;-47
2023/07/21 01:21:48;;;;;;;1.30;1.20;;;25.60;45.20;;;;;;4961826;28;20484;-46
2023/07/21 01:24:24;;;;;;;1.40;1.30;;;25.60;45.30;;;;;;4961830;28;20535;-47
2023/07/21 01:26:57;;;;;;;1.70;1.60;;;25.50;45.20;;;;;;4975991;28;20477;-46
2023/07/21 01:29:26;;;;;;;1.40;1.30;;;25.50;45.20;;;;;;4975421;28;20963;-45
2023/07/21 01:31:56;;;;;;;1.60;1.47;;;25.50;45.30;;;;;;4953687;28;20500;-47
2023/07/21 01:34:26;;;;;;;1.43;1.33;;;25.50;45.20;;;;;;4971418;28;20473;-46
2023/07/21 01:36:55;;;;;;;1.30;1.20;;;25.50;45.20;;;;;;4975930;28;20469;-47
2023/07/21 01:39:24;;;;;;;1.53;1.43;;;25.50;45.20;;;;;;4958855;28;20790;-47
2023/07/21 01:41:54;;;;;;;1.73;1.63;;;25.50;45.40;;;;;;4977023;28;20565;-45
2023/07/21 01:44:23;;;;;;;1.87;1.77;;;25.50;45.20;;;;;;4962473;28;20506;-46
2023/07/21 01:46:52;;;;;;;1.40;1.30;;;25.50;45.30;;;;;;4938107;28;20877;-45
2023/07/21 01:49:21;;;;;;;1.70;1.60;;;25.50;45.30;;;;;;4939278;29;20450;-47
2023/07/21 01:51:53;;;;;;;1.33;1.23;;;25.50;45.40;;;;;;4928026;29;20477;-46
2023/07/21 01:54:31;;;;;;;1.70;1.60;;;25.50;45.40;;;;;;4925905;29;20854;-47
2023/07/21 01:57:05;;;;;;;1.70;1.50;;;25.50;45.40;;;;;;4941637;29;20490;-47
2023/07/21 01:59:34;;;;;;;1.23;1.13;;;25.50;45.40;;;;;;4924741;29;20453;-46
2023/07/21 02:02:03;;;;;;;2.60;1.60;;;25.50;45.40;;;;;;4926286;29;20498;-46
2023/07/21 02:04:32;;;;;;;2.10;1.47;;;25.50;45.40;;;;;;4939199;29;20454;-47
2023/07/21 02:07:00;;;;;;;1.30;1.20;;;25.50;45.50;;;;;;4943318;29;20467;-47
2023/07/21 02:09:29;;;;;;;1.67;1.30;;;25.50;45.50;;;;;;4918213;29;20452;-46
2023/07/21 02:11:58;;;;;;;1.53;1.43;;;25.40;45.40;;;;;;4923369;29;20609;-46
2023/07/21 02:14:43;;;;;;;1.90;1.80;;;25.50;45.50;;;;;;4924085;29;20512;-47
2023/07/21 02:17:13;;;;;;;2.10;2.00;;;25.40;45.40;;;;;;4941192;29;20453;-47
2023/07/21 02:19:42;;;;;;;1.77;1.67;;;25.40;45.50;;;;;;4921725;29;20501;-47
2023/07/21 02:22:12;;;;;;;2.17;2.00;;;25.40;45.60;;;;;;4915677;29;20808;-48
2023/07/21 02:24:41;;;;;;;1.83;1.63;;;25.40;45.50;;;;;;4913995;29;20430;-47
2023/07/21 02:27:10;;;;;;;2.70;2.50;;;25.40;45.50;;;;;;4928109;29;21049;-46
2023/07/21 02:29:38;;;;;;;1.57;1.47;;;25.40;45.50;;;;;;4930686;29;20435;-47
2023/07/21 02:32:11;;;;;;;3.10;2.03;;;25.40;45.60;;;;;;4928789;29;20474;-46
2023/07/21 02:34:43;;;;;;;1.97;1.87;;;25.40;45.60;;;;;;4930199;29;20838;-47
2023/07/21 02:37:12;;;;;;;3.37;2.20;;;25.40;45.60;;;;;;4929797;29;20533;-47
2023/07/21 02:39:41;;;;;;;2.07;1.90;;;25.40;45.70;;;;;;4929614;29;20458;-46
2023/07/21 02:42:09;;;;;;;1.83;1.70;;;25.40;45.60;;;;;;4931186;29;20904;-46
2023/07/21 02:44:39;;;;;;;2.17;1.97;;;25.40;45.70;;;;;;4930961;29;20967;-46
2023/07/21 02:47:10;;;;;;;3.97;3.60;;;25.40;45.70;;;;;;4915434;29;20513;-45
2023/07/21 02:49:39;;;;;;;2.23;1.70;;;25.40;45.90;;;;;;4920445;29;20458;-47
2023/07/21 02:52:09;;;;;;;1.43;1.33;;;25.30;45.90;;;;;;4928288;29;20465;-45
2023/07/21 02:54:38;;;;;;;1.40;1.30;;;25.30;45.80;;;;;;4929772;29;20477;-47
2023/07/21 02:57:08;;;;;;;2.17;1.97;;;25.30;45.70;;;;;;4928505;29;20460;-47
2023/07/21 02:59:37;;;;;;;1.70;1.60;;;25.30;45.80;;;;;;4913347;29;20483;-46
2023/07/21 03:02:06;;;;;;;1.70;1.60;;;25.30;45.80;;;;;;4974921;28;20461;-47
2023/07/21 03:04:45;;;;;;;2.30;2.10;;;25.30;45.80;;;;;;4972269;28;20453;-47
2023/07/21 03:07:16;;;;;;;2.03;1.40;;;25.30;45.70;;;;;;4972817;28;21063;-46
2023/07/21 03:09:50;;;;;;;2.30;1.70;;;25.30;45.80;;;;;;4967318;28;20464;-47
2023/07/21 03:12:23;;;;;;;1.50;1.40;;;25.30;45.80;;;;;;4973251;28;20860;-47
2023/07/21 03:14:59;;;;;;;2.17;2.00;;;25.30;45.80;;;;;;4963946;28;20804;-45
2023/07/21 03:17:36;;;;;;;2.03;1.37;;;25.30;45.90;;;;;;4958285;28;20445;-47
2023/07/21 03:20:12;;;;;;;2.93;1.63;;;25.30;45.90;;;;;;4976956;28;20475;-46
2023/07/21 03:22:45;;;;;;;2.20;1.70;;;25.30;45.90;;;;;;4957868;28;20486;-44
2023/07/21 03:25:15;;;;;;;2.43;1.90;;;25.30;45.90;;;;;;4957233;28;20444;-47
2023/07/21 03:27:46;;;;;;;2.47;1.90;;;25.30;45.80;;;;;;4956407;28;21046;-46
2023/07/21 03:30:21;;;;;;;1.97;1.87;;;25.30;45.90;;;;;;4961359;28;20443;-45
2023/07/21 03:32:58;;;;;;;2.07;1.60;;;25.30;45.90;;;;;;4961212;28;20469;-45
2023/07/21 03:35:31;;;;;;;1.47;1.37;;;25.30;45.90;;;;;;4960444;28;20462;-46
2023/07/21 03:38:00;;;;;;;2.10;2.00;;;25.20;45.90;;;;;;4972251;28;20453;-45
2023/07/21 03:40:29;;;;;;;1.73;1.20;;;25.30;46.00;;;;;;4965468;28;20463;-48
2023/07/21 03:42:58;;;;;;;2.70;1.57;;;25.20;45.90;;;;;;4972930;28;20483;-47
2023/07/21 03:45:28;;;;;;;1.47;1.37;;;25.20;45.90;;;;;;4975240;28;20545;-47
2023/07/21 03:47:58;;;;;;;2.20;2.00;;;25.20;45.90;;;;;;4945765;28;20503;-46
2023/07/21 03:50:28;;;;;;;2.37;2.17;;;25.20;47.10;;;;;;4961183;28;20459;-47
2023/07/21 03:52:59;;;;;;;3.27;1.30;;;25.20;45.90;;;;;;4971097;28;20472;-46
2023/07/21 03:55:28;;;;;;;2.20;1.70;;;25.20;46.00;;;;;;4949382;28;20531;-46
2023/07/21 03:57:57;;;;;;;2.07;1.83;;;25.20;46.00;;;;;;4973373;28;20498;-46
2023/07/21 04:00:26;;;;;;;1.80;1.70;;;25.20;45.90;;;;;;4958298;28;20478;-45
2023/07/21 04:02:54;;;;;;;2.40;2.20;;;25.20;45.90;;;;;;4978627;28;20440;-47
2023/07/21 04:05:24;;;;;;;2.97;2.20;;;25.20;45.90;;;;;;4978870;28;20446;-45
2023/07/21 04:07:55;;;;;;;1.90;1.50;;;25.20;46.10;;;;;;4960033;28;20448;-46
2023/07/21 04:10:25;;;;;;;1.60;1.50;;;25.20;46.00;;;;;;4973520;28;20470;-46
2023/07/21 04:12:54;;;;;;;1.73;1.30;;;25.20;46.10;;;;;;4979157;28;20454;-47
2023/07/21 04:15:25;;;;;;;1.47;1.37;;;25.20;46.00;;;;;;4963183;28;20497;-47
2023/07/21 04:17:53;;;;;;;2.00;1.80;;;25.10;45.90;;;;;;4960348;28;20453;-45
2023/07/21 04:20:23;;;;;;;1.90;1.60;;;25.10;45.90;;;;;;4961298;28;20476;-47
2023/07/21 04:22:52;;;;;;;1.87;1.77;;;25.10;46.00;;;;;;4959131;28;20451;-47
2023/07/21 04:25:21;;;;;;;1.63;1.53;;;25.10;46.00;;;;;;4975688;28;20479;-47
2023/07/21 04:27:53;;;;;;;2.00;1.87;;;25.10;46.00;;;;;;4980192;28;20532;-47
2023/07/21 04:30:23;;;;;;;1.87;1.77;;;25.10;46.00;;;;;;4980136;28;20527;-46
2023/07/21 04:32:52;;;;;;;1.87;1.77;;;25.10;46.00;;;;;;4969576;28;20960;-47
2023/07/21 04:35:21;;;;;;;2.17;1.87;;;25.10;46.10;;;;;;4961186;28;20476;-46
2023/07/21 04:37:50;;;;;;;2.00;1.80;;;25.10;46.10;;;;;;4976031;28;20785;-46
2023/07/21 04:40:21;;;;;;;2.17;1.97;;;25.10;46.00;;;;;;4975622;28;20464;-46
2023/07/21 04:42:52;;;;;;;2.07;1.80;;;25.10;46.00;;;;;;4962916;28;20962;-46
2023/07/21 04:45:21;;;;;;;2.27;2.07;;;25.10;46.10;;;;;;4977206;28;20834;-47
2023/07/21 04:48:02;;;;;;;1.80;1.47;;;25.10;46.20;;;;;;4971905;28;20448;-48
2023/07/21 04:50:36;;;;;;;1.50;1.40;;;25.10;46.20;;;;;;4977378;28;20443;-47
2023/07/21 04:53:05;;;;;;;2.00;1.80;;;25.10;46.20;;;;;;4972406;28;20510;-46
2023/07/21 04:55:36;;;;;;;1.87;1.77;;;25.10;46.20;;;;;;4959217;28;20475;-48
2023/07/21 04:58:08;;;;;;;2.83;2.33;;;25.10;46.10;;;;;;4958194;28;21002;-45
2023/07/21 05:00:40;;;;;;;1.60;1.50;;;25.10;46.20;;;;;;4961965;28;20454;-46
2023/07/21 05:03:09;;;;;;;1.50;1.40;;;25.00;46.20;;;;;;4979241;28;20449;-47
2023/07/21 05:05:39;;;;;;;2.43;1.57;;;25.10;46.20;;;;;;4959448;28;20892;-47
2023/07/21 05:08:08;;;;;;;1.87;1.70;;;25.00;46.20;;;;;;4978072;28;20451;-46
2023/07/21 05:10:37;;;;;;;1.47;1.37;;;25.00;46.20;;;;;;4957170;28;20447;-46
2023/07/21 05:13:11;;;;;;;1.93;1.83;;;25.00;46.20;;;;;;4974970;28;20809;-45
2023/07/21 05:16:03;;;;;;;1.67;1.57;;;25.00;46.20;;;;;;4931060;28;20556;-44
2023/07/21 05:18:44;;;;;;;1.70;1.60;;;25.00;46.20;;;;;;4960762;28;21101;-46
2023/07/21 05:21:26;;;;;;;2.03;1.80;;;25.00;46.20;;;;;;4975688;28;20483;-45
2023/07/21 05:24:06;;;;;;;1.80;1.70;;;25.00;46.20;;;;;;4962344;28;20481;-47
2023/07/21 05:26:36;;;;;;;2.10;1.87;;;25.00;46.30;;;;;;4960723;28;20460;-45
2023/07/21 05:29:19;;;;;;;2.60;1.93;;;25.00;46.30;;;;;;4977122;28;20427;-46
2023/07/21 05:31:48;;;;;;;4.87;1.87;;;25.00;46.30;;;;;;4952519;28;20482;-46
2023/07/21 05:34:24;;;;;;;1.90;1.70;;;25.00;46.30;;;;;;4955567;28;20449;-47
2023/07/21 05:36:55;;;;;;;1.70;1.60;;;25.00;46.40;;;;;;4978010;28;20589;-46
2023/07/21 05:39:23;;;;;;;2.13;1.70;;;24.90;46.20;;;;;;4957219;28;20485;-47
2023/07/21 05:41:56;;;;;;;2.10;1.90;;;24.90;46.20;;;;;;4976431;28;21198;-46
2023/07/21 05:44:30;;;;;;;2.40;2.20;;;24.90;46.30;;;;;;4959625;28;20461;-47
2023/07/21 05:46:59;;;;;;;2.30;1.97;;;24.90;46.20;;;;;;4959857;28;20467;-47
2023/07/21 05:49:28;;;;;;;4.30;2.30;;;24.90;46.30;;;;;;4961979;28;20455;-46
2023/07/21 05:51:59;;;;;;;2.30;2.00;;;24.90;46.30;;;;;;4956261;28;20548;-46
2023/07/21 05:54:41;;;;;;;2.10;1.73;;;24.90;46.20;;;;;;4954834;28;20856;-46
2023/07/21 05:57:12;;;;;;;1.70;1.60;;;24.90;47.50;;;;;;4980763;28;20562;-48
2023/07/21 05:59:45;;;;;;;1.90;1.80;;;24.90;46.40;;;;;;4959718;28;20443;-46
2023/07/21 06:02:15;;;;;;;2.10;1.67;;;24.90;46.30;;;;;;4973328;28;20478;-46
2023/07/21 06:04:51;;;;;;;1.73;1.63;;;24.90;46.30;;;;;;4960104;28;20791;-46
2023/07/21 06:07:46;;;;;;;1.87;1.77;;;24.90;46.30;;;;;;4952172;28;20449;-46
2023/07/21 06:10:20;;;;;;;1.70;1.60;;;24.90;46.40;;;;;;4958888;28;20491;-46
2023/07/21 06:13:04;;;;;;;1.53;1.43;;;24.90;46.40;;;;;;4962539;28;20491;-46
2023/07/21 06:15:40;;;;;;;2.10;1.90;;;24.90;46.40;;;;;;4974701;28;20489;-46
2023/07/21 06:18:26;;;;;;;1.83;1.73;;;24.90;46.40;;;;;;4970023;28;20458;-45
2023/07/21 06:20:55;;;;;;;2.67;2.47;;;24.90;46.40;;;;;;4968745;28;20868;-47
2023/07/21 06:23:24;;;;;;;2.33;2.13;;;24.90;46.50;;;;;;4957572;28;20801;-47
2023/07/21 06:25:54;;;;;;;2.00;1.80;;;24.90;46.60;;;;;;4975563;28;20545;-46
2023/07/21 06:28:23;;;;;;;2.40;2.20;;;24.80;46.50;;;;;;4976300;28;20441;-47
2023/07/21 06:30:53;;;;;;;1.73;1.60;;;24.80;46.50;;;;;;4973660;28;20591;-47
2023/07/21 06:33:41;;;;;;;1.73;1.63;;;24.80;46.40;;;;;;4958438;28;20462;-48
2023/07/21 06:36:37;;;;;;;2.40;2.07;;;24.80;46.60;;;;;;4976788;28;20477;-48
2023/07/21 06:39:23;;;;;;;2.00;1.40;;;24.80;46.50;;;;;;4955587;28;20447;-47
2023/07/21 06:42:04;;;;;;;2.80;1.60;;;24.80;46.50;;;;;;4967475;28;20483;-44
2023/07/21 06:44:39;;;;;;;2.60;1.87;;;24.80;46.50;;;;;;4958781;28;20453;-47
2023/07/21 06:47:19;;;;;;;1.97;1.87;;;24.80;46.50;;;;;;4956950;28;20466;-46
2023/07/21 06:50:01;;;;;;;2.60;2.20;;;24.80;46.50;;;;;;4958419;28;20548;-46
2023/07/21 06:52:31;;;;;;;3.50;1.83;;;24.80;46.50;;;;;;4955990;28;20463;-46
2023/07/21 06:55:01;;;;;;;1.60;1.40;;;24.80;46.60;;;;;;4974554;28;20882;-45
2023/07/21 06:57:30;;;;;;;1.90;1.80;;;24.80;46.50;;;;;;4959765;28;21027;-48
2023/07/21 06:59:59;;;;;;;3.30;2.70;;;24.80;46.50;;;;;;4958199;28;20951;-47
2023/07/21 07:02:30;;;;;;;2.27;2.07;;;24.80;46.60;;;;;;4970276;28;20475;-46
2023/07/21 07:05:00;;;;;;;2.07;1.87;;;24.80;46.50;;;;;;4974318;28;20540;-48
2023/07/21 07:07:29;;;;;;;1.97;1.87;;;24.80;46.50;;;;;;4959696;28;20834;-46
2023/07/21 07:09:58;;;;;;;2.40;2.20;;;24.80;46.50;;;;;;4972185;28;20521;-44
2023/07/21 07:12:26;;;;;;;2.17;2.00;;;24.80;46.50;;;;;;4958055;28;21036;-47
2023/07/21 07:14:55;;;;;;;2.47;1.40;;;24.80;46.50;;;;;;4954789;28;20434;-46
2023/07/21 07:17:27;;;;;;;3.33;1.93;;;24.80;46.50;;;;;;4972140;28;20468;-47
2023/07/21 07:19:57;;;;;;;2.70;1.80;;;24.80;46.60;;;;;;4959763;28;20472;-47
2023/07/21 07:22:25;;;;;;;4.53;2.40;;;24.80;46.50;;;;;;4957433;28;20521;-47
2023/07/21 07:24:54;;;;;;;2.80;2.17;;;24.80;46.60;;;;;;4956717;28;20459;-46
2023/07/21 07:27:24;;;;;;;2.47;2.27;;;24.80;46.60;;;;;;4969399;28;20481;-45
2023/07/21 07:29:53;;;;;;;2.27;1.77;;;24.80;46.60;;;;;;4976728;28;20455;-50
2023/07/21 07:32:21;;;;;;;2.00;1.80;;;24.80;46.50;;;;;;4983778;28;20439;-50
2023/07/21 07:34:55;;;;;;;1.90;1.80;;;24.80;46.60;;;;;;5032302;23;20555;-65
2023/07/21 07:37:25;;;;;;;1.90;1.80;;;24.80;46.60;;;;;;5013484;28;20813;-65
2023/07/21 07:39:53;;;;;;;2.00;1.90;;;24.80;46.60;;;;;;4999350;28;20449;-66
2023/07/21 07:42:22;;;;;;;1.53;1.43;;;24.70;47.80;;;;;;5003191;28;20465;-66
2023/07/21 07:44:58;;;;;;;2.33;2.17;;;24.70;46.50;;;;;;5011623;28;20907;-65
2023/07/21 07:47:29;;;;;;;2.57;2.37;;;24.70;46.60;;;;;;5018514;28;20527;-65
2023/07/21 07:49:59;;;;;;;2.60;2.40;;;24.70;46.60;;;;;;5016039;28;21042;-64
2023/07/21 07:52:27;;;;;;;2.50;2.30;;;24.70;46.60;;;;;;5000399;28;20458;-64
2023/07/21 07:54:56;;;;;;;2.77;2.57;;;24.70;46.60;;;;;;4999550;28;20463;-66
2023/07/21 07:57:26;;;;;;;2.83;2.63;;;24.70;46.70;;;;;;4997207;28;21001;-65
2023/07/21 07:59:55;;;;;;;2.23;1.67;;;24.70;46.70;;;;;;5019601;28;20464;-65
2023/07/21 08:02:23;;;;;;;1.90;1.70;;;24.70;46.60;;;;;;5004855;28;20944;-65
2023/07/21 08:04:52;;;;;;;3.57;1.77;;;24.70;46.50;;;;;;5004271;28;20476;-65
2023/07/21 08:07:22;;;;;;;2.20;2.00;;;24.70;46.50;;;;;;5003848;28;20452;-64
2023/07/21 08:09:54;;;;;;;1.93;1.77;;;24.70;46.60;;;;;;4999794;28;20443;-64
2023/07/21 08:12:22;;;;;;;1.90;1.70;;;24.70;46.60;;;;;;5005456;28;20463;-65
2023/07/21 08:14:50;;;;;;;2.17;1.97;;;24.70;46.50;;;;;;5003093;28;20460;-66
2023/07/21 08:17:19;;;;;;;1.70;1.60;;;24.70;46.50;;;;;;5001973;28;20476;-66
2023/07/21 08:19:47;;;;;;;1.70;1.60;;;24.70;46.50;;;;;;5005815;28;20452;-66
2023/07/21 08:22:16;;;;;;;2.57;2.17;;;24.70;46.60;;;;;;4999940;28;20445;-64
2023/07/21 08:24:46;;;;;;;2.30;1.77;;;24.70;46.60;;;;;;5003551;28;20833;-66
2023/07/21 08:27:14;;;;;;;2.17;2.00;;;24.70;46.60;;;;;;5004667;28;20789;-65
2023/07/21 08:29:42;;;;;;;2.47;2.00;;;24.70;46.60;;;;;;5005324;28;20527;-66
2023/07/21 08:32:11;;;;;;;1.60;1.50;;;24.70;46.60;;;;;;4999974;28;20893;-66
2023/07/21 08:34:39;;;;;;;2.50;2.30;;;24.70;46.50;;;;;;5006561;28;20471;-66
2023/07/21 08:37:08;;;;;;;2.33;1.80;;;24.70;46.60;;;;;;4999427;28;20483;-65
2023/07/21 08:39:36;;;;;;;3.03;2.83;;;24.70;46.50;;;;;;4998771;28;20519;-66
2023/07/21 08:42:10;;;;;;;3.77;3.47;;;24.70;46.60;;;;;;5009593;28;20822;-66
2023/07/21 08:44:39;;;;;;;1.53;1.43;;;24.60;46.60;;;;;;5003715;28;20472;-66
2023/07/21 08:47:09;;;;;;;2.60;2.33;;;24.60;46.50;;;;;;5006323;28;20551;-66
2023/07/21 08:49:40;;;;;;;3.13;2.50;;;24.60;46.70;;;;;;5010154;28;21027;-66
2023/07/21 08:52:09;;;;;;;3.20;3.00;;;24.60;46.70;;;;;;4972484;28;20995;-66
2023/07/21 08:54:37;;;;;;;2.63;2.47;;;24.60;46.90;;;;;;4987769;28;20465;-65
2023/07/21 08:57:07;;;;;;;3.07;1.77;;;24.60;46.70;;;;;;4979085;28;20453;-66
2023/07/21 08:59:36;;;;;;;1.93;1.83;;;24.60;46.80;;;;;;4976051;28;20953;-66
2023/07/21 09:02:04;;;;;;;1.70;1.60;;;24.60;46.70;;;;;;4972909;28;20485;-66
2023/07/21 09:04:33;;;;;;;3.13;2.87;;;24.60;46.60;;;;;;4978470;28;20507;-65
2023/07/21 09:07:03;;;;;;;2.10;2.00;;;24.60;46.80;;;;;;4982587;28;20574;-66
2023/07/21 09:09:32;;;;;;;4.40;4.10;;;24.60;46.80;;;;;;4966842;28;20444;-66
2023/07/21 09:12:02;;;;;;;2.17;2.07;;;24.60;46.80;;;;;;4966183;28;20473;-63
2023/07/21 09:14:37;;;;;;;2.60;2.40;;;24.60;46.70;;;;;;4967344;28;20857;-65
2023/07/21 09:17:07;;;;;;;2.33;2.13;;;24.60;46.70;;;;;;4975918;28;20830;-66
2023/07/21 09:19:37;;;;;;;2.60;2.40;;;24.60;46.80;;;;;;4969748;28;20480;-64
2023/07/21 09:22:06;;;;;;;3.03;2.83;;;24.60;46.70;;;;;;5005164;28;20479;-66
2023/07/21 09:24:35;;;;;;;3.90;3.60;;;24.60;46.70;;;;;;4985346;28;20475;-67
2023/07/21 09:27:14;;;;;;;1.80;1.70;;;24.60;46.70;;;;;;4999953;28;20501;-66
2023/07/21 09:29:44;;;;;;;2.33;2.13;;;24.60;46.70;;;;;;4983847;28;20450;-65
2023/07/21 09:32:14;;;;;;;1.83;1.73;;;24.60;46.70;;;;;;4987591;28;20467;-65
2023/07/21 09:34:56;;;;;;;5.63;4.20;;;24.60;46.60;;;;;;5005279;28;20539;-66
2023/07/21 09:37:26;;;;;;;3.33;3.03;;;24.60;46.80;;;;;;4998041;28;20975;-63
2023/07/21 09:39:58;;;;;;;2.10;1.87;;;24.60;46.70;;;;;;4968344;28;20437;-66
2023/07/21 09:42:27;;;;;;;2.47;2.30;;;24.60;46.70;;;;;;4981355;28;20927;-67
2023/07/21 09:44:58;;;;;;;2.63;2.43;;;24.50;46.70;;;;;;4985649;28;20817;-66
2023/07/21 09:47:26;;;;;;;2.90;2.07;;;24.50;46.70;;;;;;5002965;28;20562;-67
2023/07/21 09:49:58;;;;;;;1.93;1.83;;;24.50;46.70;;;;;;4985310;28;20447;-65
2023/07/21 09:52:28;;;;;;;2.17;2.03;;;24.50;46.70;;;;;;5006635;28;20436;-66
2023/07/21 09:55:06;;;;;;;2.27;2.07;;;24.50;46.70;;;;;;4985577;28;20477;-66
2023/07/21 09:57:36;;;;;;;3.57;3.37;;;24.50;46.90;;;;;;5007175;28;20606;-65
2023/07/21 10:00:13;;;;;;;2.53;2.33;;;24.50;46.70;;;;;;4984423;28;20479;-66
2023/07/21 10:02:43;;;;;;;3.30;2.10;;;24.50;46.80;;;;;;4968455;28;20452;-67
2023/07/21 10:05:13;;;;;;;2.43;1.40;;;24.50;46.70;;;;;;4987351;28;20459;-66
2023/07/21 10:07:45;;;;;;;3.00;2.70;;;24.50;46.70;;;;;;4971917;28;20439;-66
2023/07/21 10:10:14;;;;;;;2.60;2.40;;;24.50;46.70;;;;;;4971206;28;21034;-66
2023/07/21 10:12:48;;;;;;;2.33;2.13;;;24.50;46.60;;;;;;4987742;28;20573;-67
2023/07/21 10:15:20;;;;;;;1.90;1.80;;;24.50;46.70;;;;;;4987219;28;20443;-67
2023/07/21 10:17:59;;;;;;;1.70;1.60;;;24.50;46.70;;;;;;4970215;28;20820;-67
2023/07/21 10:20:46;;;;;;;2.10;1.90;;;24.50;46.70;;;;;;4970464;28;20499;-67
2023/07/21 10:23:16;;;;;;;2.20;1.60;;;24.50;46.40;;;;;;4995240;28;20433;-67
2023/07/21 10:26:00;;;;;;;3.80;1.93;;;24.50;46.60;;;;;;4994605;28;20419;-67
2023/07/21 10:28:35;;;;;;;1.90;1.80;;;24.50;46.60;;;;;;4965720;28;20456;-66
2023/07/21 10:31:39;;;;;;;2.80;2.60;;;24.50;46.70;;;;;;4983876;28;20878;-65
2023/07/21 10:34:14;;;;;;;2.87;1.97;;;24.50;46.60;;;;;;4965791;28;20998;-66
2023/07/21 10:36:58;;;;;;;1.73;1.63;;;24.50;46.70;;;;;;4984405;28;20487;-66
2023/07/21 10:39:29;;;;;;;1.77;1.63;;;24.50;46.70;;;;;;5003292;28;20484;-66
2023/07/21 10:41:59;;;;;;;1.50;1.40;;;24.50;46.60;;;;;;4998527;28;20479;-65
2023/07/21 10:44:36;;;;;;;2.60;2.40;;;24.50;46.60;;;;;;4988940;28;20463;-67
2023/07/21 10:47:12;;;;;;;2.90;2.70;;;24.50;46.50;;;;;;4982811;28;20487;-67
2023/07/21 10:49:41;;;;;;;1.77;1.67;;;24.40;46.60;;;;;;4989495;28;20956;-65
2023/07/21 10:52:10;;;;;;;1.87;1.77;;;24.40;46.70;;;;;;4973481;28;20473;-66
2023/07/21 10:54:38;;;;;;;1.90;1.80;;;24.50;46.50;;;;;;4982614;28;20470;-64
2023/07/21 10:57:08;;;;;;;2.10;2.00;;;24.50;46.50;;;;;;4986584;28;20500;-66
2023/07/21 10:59:38;;;;;;;2.97;2.50;;;24.40;46.30;;;;;;4989854;28;20470;-65
2023/07/21 11:02:08;;;;;;;1.77;1.67;;;24.40;46.30;;;;;;5003835;28;20472;-66
2023/07/21 11:04:40;;;;;;;2.03;1.67;;;24.40;46.40;;;;;;5003877;28;20807;-66
2023/07/21 11:07:09;;;;;;;2.00;1.80;;;24.40;46.30;;;;;;5004909;28;20457;-66
2023/07/21 11:09:45;;;;;;;1.73;1.63;;;24.40;46.30;;;;;;5002885;28;20497;-65
2023/07/21 11:12:14;;;;;;;1.30;1.20;;;24.40;46.40;;;;;;5002380;28;20473;-66
2023/07/21 11:14:44;;;;;;;2.30;1.97;;;24.40;46.40;;;;;;4982596;28;20839;-64
2023/07/21 11:17:14;;;;;;;2.13;1.93;;;24.40;46.30;;;;;;4998087;28;20485;-67
2023/07/21 11:19:42;;;;;;;4.10;2.10;;;24.40;46.10;;;;;;5001417;28;20502;-67
2023/07/21 11:22:11;;;;;;;1.87;1.73;;;24.40;46.10;;;;;;5001515;28;20464;-66
2023/07/21 11:24:39;;;;;;;2.07;1.97;;;24.40;46.30;;;;;;5003168;28;20469;-66
2023/07/21 11:27:09;;;;;;;2.70;1.90;;;24.40;46.30;;;;;;5003929;28;20471;-67
2023/07/21 11:29:42;;;;;;;1.60;1.50;;;24.40;46.00;;;;;;5006902;28;20453;-64
2023/07/21 11:32:22;;;;;;;1.90;1.80;;;24.40;46.20;;;;;;5003777;28;20987;-65
2023/07/21 11:34:56;;;;;;;1.57;1.47;;;24.40;46.10;;;;;;5002152;28;20585;-67
2023/07/21 11:37:26;;;;;;;1.70;1.60;;;24.40;46.10;;;;;;5003125;28;20450;-67
2023/07/21 11:39:58;;;;;;;2.27;2.10;;;24.40;46.20;;;;;;5000604;28;21022;-65
2023/07/21 11:42:26;;;;;;;1.73;1.63;;;24.40;46.00;;;;;;5019974;28;20558;-66
2023/07/21 11:44:55;;;;;;;1.60;1.50;;;24.40;46.20;;;;;;5001862;28;20593;-67
2023/07/21 11:47:25;;;;;;;1.83;1.67;;;24.40;46.00;;;;;;4996485;28;20454;-67
2023/07/21 11:49:55;;;;;;;1.97;1.80;;;24.40;45.90;;;;;;5006486;28;20521;-66
2023/07/21 11:52:26;;;;;;;1.73;1.63;;;24.40;45.70;;;;;;5006273;28;20451;-67
2023/07/21 11:54:58;;;;;;;1.60;1.50;;;24.40;45.50;;;;;;5001974;28;21375;-65
2023/07/21 11:57:27;;;;;;;1.90;1.70;;;24.40;45.20;;;;;;5004643;28;20507;-67
2023/07/21 11:59:56;;;;;;;1.90;1.73;;;24.40;45.20;;;;;;4999962;28;20643;-66
2023/07/21 12:02:26;;;;;;;1.97;1.87;;;24.40;45.50;;;;;;5000970;28;20567;-66
2023/07/21 12:04:56;;;;;;;2.20;2.00;;;24.40;45.40;;;;;;5002691;28;20485;-65
2023/07/21 12:07:25;;;;;;;2.20;2.03;;;24.40;45.30;;;;;;5005235;28;20765;-67
2023/07/21 12:09:54;;;;;;;2.00;1.80;;;24.40;45.30;;;;;;5001806;28;21008;-65
2023/07/21 12:12:23;;;;;;;4.07;2.03;;;24.40;45.50;;;;;;5000293;28;20434;-66
2023/07/21 12:14:51;;;;;;;1.97;1.83;;;24.30;45.40;;;;;;5002515;28;20924;-66
2023/07/21 12:17:20;;;;;;;1.80;1.60;;;24.40;44.80;;;;;;5019127;28;20814;-66
2023/07/21 12:19:53;;;;;;;1.93;1.70;;;24.40;45.00;;;;;;5003337;28;20475;-65
2023/07/21 12:22:25;;;;;;;1.70;1.60;;;24.40;44.90;;;;;;5007764;28;21039;-65
2023/07/21 12:24:54;;;;;;;1.60;1.50;;;24.40;44.90;;;;;;5004926;28;21029;-65
2023/07/21 12:27:25;;;;;;;2.03;1.83;;;24.40;44.60;;;;;;5001489;28;20453;-67
2023/07/21 12:29:54;;;;;;;1.77;1.67;;;24.40;45.00;;;;;;5000526;28;20469;-67
2023/07/21 12:32:22;;;;;;;1.60;1.50;;;24.40;45.20;;;;;;4999416;28;20456;-66
2023/07/21 12:34:52;;;;;;;1.60;1.50;;;24.40;45.20;;;;;;5008265;28;20525;-66
2023/07/21 12:37:21;;;;;;;1.67;1.57;;;24.40;45.20;;;;;;5002482;28;20934;-66
2023/07/21 12:39:49;;;;;;;1.40;1.30;;;24.40;45.20;;;;;;5007235;28;20560;-66
2023/07/21 12:42:18;;;;;;;1.23;1.13;;;24.40;44.80;;;;;;5007927;28;20458;-66
2023/07/21 12:44:46;;;;;;;1.93;1.83;;;24.40;45.10;;;;;;5006220;28;20452;-66
2023/07/21 12:47:14;;;;;;;1.43;1.33;;;24.40;45.00;;;;;;5005929;28;20475;-66
2023/07/21 12:49:43;;;;;;;1.40;1.30;;;24.40;46.10;;;;;;5008406;28;20438;-65
2023/07/21 12:52:13;;;;;;;1.50;1.40;;;24.40;44.90;;;;;;5008320;28;20737;-66
2023/07/21 12:54:41;;;;;;;1.60;1.33;;;24.40;44.90;;;;;;5006767;28;20475;-65
2023/07/21 12:57:13;;;;;;;2.30;1.93;;;24.40;44.50;;;;;;5006289;28;20464;-67
2023/07/21 12:59:42;;;;;;;1.67;1.57;;;24.40;44.30;;;;;;5008506;28;20475;-67
2023/07/21 13:02:10;;;;;;;1.93;1.73;;;24.40;44.30;;;;;;5005425;28;20499;-66
2023/07/21 13:04:39;;;;;;;2.00;1.70;;;24.40;44.30;;;;;;5002010;28;20545;-65
2023/07/21 13:07:09;;;;;;;1.70;1.57;;;24.50;44.90;;;;;;5008990;28;20825;-67
2023/07/21 13:09:39;;;;;;;2.17;1.70;;;24.40;45.00;;;;;;5004957;28;20538;-65